createdAt,value
2023-02-04T18:49:03.578Z,25.30
2023-02-04T18:51:34.905Z,10.02
2023-02-04T18:54:35.621Z,11.40
2023-02-04T18:57:29.710Z,14.07
2023-02-04T19:00:30.763Z,11.65
2023-02-04T19:03:00.382Z,17.73
2023-02-04T19:05:36.011Z,15.10
2023-02-04T19:08:27.594Z,17.65
2023-02-04T19:10:56.984Z,17.92
2023-02-04T19:13:27.315Z,14.82
2023-02-04T19:15:59.492Z,15.07
2023-02-04T19:18:31.138Z,18.73
2023-02-04T19:21:17.876Z,16.67
2023-02-04T19:23:45.952Z,18.13
2023-02-04T19:26:28.859Z,16.95
2023-02-04T19:28:56.970Z,17.02
2023-02-04T19:31:35.319Z,19.92
2023-02-04T19:34:24.429Z,20.17
2023-02-04T19:36:55.352Z,20.02
2023-02-04T19:39:31.700Z,21.63
2023-02-04T19:41:59.637Z,21.30
2023-02-04T19:44:43.461Z,20.48
2023-02-04T19:47:25.611Z,25.67
2023-02-04T19:50:01.117Z,22.23
2023-02-04T19:52:37.550Z,26.48
2023-02-04T19:55:26.036Z,28.63
2023-02-04T19:57:55.366Z,23.27
2023-02-04T20:00:40.117Z,24.65
2023-02-04T20:03:28.035Z,20.77
2023-02-04T20:05:59.166Z,24.60
2023-02-04T20:08:51.578Z,22.30
2023-02-04T20:11:44.043Z,24.75
2023-02-04T20:14:47.265Z,24.25
2023-02-04T20:17:24.344Z,27.05
2023-02-04T20:19:52.556Z,26.25
2023-02-04T20:22:45.460Z,26.02
2023-02-04T20:25:48.798Z,28.38
2023-02-04T20:28:23.379Z,30.50
2023-02-04T20:30:52.705Z,31.80
2023-02-04T20:33:28.073Z,35.78
2023-02-04T20:36:30.697Z,30.75
2023-02-04T20:39:08.102Z,31.33
2023-02-04T20:41:39.109Z,33.67
2023-02-04T20:44:16.192Z,36.85
2023-02-04T20:46:44.536Z,33.83
2023-02-04T20:49:23.581Z,35.35
2023-02-04T20:51:51.873Z,38.08
2023-02-04T20:54:19.818Z,43.97
2023-02-04T20:56:49.082Z,46.15
2023-02-04T20:59:28.931Z,46.65
2023-02-04T21:01:57.035Z,41.80
2023-02-04T21:04:30.242Z,44.30
2023-02-04T21:07:02.420Z,41.92
2023-02-04T21:09:32.177Z,42.25
2023-02-04T21:12:03.321Z,52.58
2023-02-04T21:14:31.726Z,47.13
2023-02-04T21:16:59.697Z,40.85
2023-02-04T21:19:28.757Z,48.30
2023-02-04T21:21:57.488Z,52.10
2023-02-04T21:24:26.204Z,50.05
2023-02-04T21:26:54.246Z,53.95
2023-02-04T21:29:23.533Z,48.10
2023-02-04T21:31:52.555Z,53.35
2023-02-04T21:34:20.442Z,55.15
2023-02-04T21:36:48.366Z,52.78
2023-02-04T21:39:16.375Z,51.10
2023-02-04T21:41:44.319Z,48.85
2023-02-04T21:44:12.249Z,47.65
2023-02-04T21:46:41.595Z,46.92
2023-02-04T21:49:09.519Z,50.97
2023-02-04T21:51:37.451Z,46.08
2023-02-04T21:54:05.465Z,47.67
2023-02-04T21:56:33.420Z,51.88
2023-02-04T21:59:01.322Z,46.40
2023-02-04T22:01:29.188Z,51.97
2023-02-04T22:03:58.471Z,49.30
2023-02-04T22:06:28.718Z,47.65
2023-02-04T22:08:56.563Z,48.78
2023-02-04T22:11:24.520Z,53.53
2023-02-04T22:13:52.387Z,53.85
2023-02-04T22:16:20.313Z,52.08
2023-02-04T22:18:48.191Z,51.83
2023-02-04T22:21:17.382Z,57.47
2023-02-04T22:23:45.284Z,52.90
2023-02-04T22:26:13.146Z,60.33
2023-02-04T22:28:41.091Z,55.70
2023-02-04T22:31:09.073Z,55.20
2023-02-04T22:33:37.036Z,60.88
2023-02-04T22:36:05.207Z,61.38
2023-02-04T22:38:34.439Z,62.60
2023-02-04T22:41:02.312Z,61.95
2023-02-04T22:43:30.191Z,58.28
2023-02-04T22:45:58.065Z,62.50
2023-02-04T22:48:25.977Z,59.53
2023-02-04T22:50:55.405Z,66.60
2023-02-04T22:53:23.332Z,65.85
2023-02-04T22:55:52.608Z,66.70
2023-02-04T22:58:20.488Z,71.35
2023-02-04T23:00:48.417Z,67.57
2023-02-04T23:03:16.374Z,64.95
2023-02-04T23:05:45.142Z,68.53
2023-02-04T23:08:13.089Z,74.28
2023-02-04T23:10:41.283Z,68.95
2023-02-04T23:13:10.672Z,66.03
2023-02-04T23:15:39.639Z,68.75
2023-02-04T23:18:07.518Z,73.90
2023-02-04T23:20:36.627Z,73.68
2023-02-04T23:23:04.718Z,78.30
2023-02-04T23:25:33.000Z,80.15
2023-02-04T23:28:01.095Z,72.75
2023-02-04T23:30:30.527Z,73.03
2023-02-04T23:32:58.459Z,79.53
2023-02-04T23:35:26.447Z,85.32
